Time;durP1;ratioP1;P1;durP2;ratioP2;P2;SDS_P1;SDS_P2;PMS_P1;PMS_P2;Temp;Humidity;BMP_temperature;BMP_pressure;BME280_temperature;BME280_humidity;BME280_pressure;Samples;Min_cycle;Max_cycle;Signal;HPM_P1;HPM_P2
2022/12/09 05:20:30;;;;;;;91.95;39.20;;;;;;;1.28;100.00;99778.72;5561939;32;192055;-85
2022/12/09 05:23:34;;;;;;;91.97;40.15;;;;;;;1.27;100.00;99781.34;5548032;32;33905;-86
2022/12/09 05:26:37;;;;;;;91.03;37.92;;;;;;;1.30;100.00;99794.34;5547422;32;33566;-86
2022/12/09 05:29:40;;;;;;;76.85;37.03;;;;;;;1.32;100.00;99785.56;5547527;32;33942;-86
2022/12/09 05:32:43;;;;;;;80.65;37.15;;;;;;;1.39;100.00;99795.91;5548629;32;33681;-86
2022/12/09 05:35:46;;;;;;;78.55;36.55;;;;;;;1.50;100.00;99786.06;5548241;32;35163;-86
2022/12/09 05:38:55;;;;;;;80.07;36.15;;;;;;;1.60;100.00;99779.75;5548196;32;34288;-86
2022/12/09 05:41:58;;;;;;;73.87;34.55;;;;;;;1.56;100.00;99779.87;5548645;32;34706;-86
2022/12/09 05:45:00;;;;;;;67.78;34.30;;;;;;;1.60;100.00;99776.28;5548496;32;34896;-86
2022/12/09 05:48:04;;;;;;;72.45;33.95;;;;;;;1.68;100.00;99765.66;5548373;32;33857;-85
2022/12/09 05:51:12;;;;;;;67.05;34.17;;;;;;;1.62;100.00;99772.72;5552162;32;34265;-86
2022/12/09 05:54:15;;;;;;;71.87;34.08;;;;;;;1.68;100.00;99763.91;5552523;32;33665;-85
2022/12/09 05:57:18;;;;;;;66.10;34.28;;;;;;;1.68;100.00;99758.69;5553404;32;34914;-86
2022/12/09 06:00:22;;;;;;;65.45;32.45;;;;;;;1.62;100.00;99759.66;5549515;32;34687;-86
2022/12/09 06:03:25;;;;;;;66.15;33.65;;;;;;;1.70;100.00;99759.50;5547799;32;34047;-86
2022/12/09 06:06:31;;;;;;;69.70;32.70;;;;;;;1.77;100.00;99760.22;5548500;32;34262;-86
2022/12/09 06:09:34;;;;;;;62.90;33.35;;;;;;;1.69;100.00;99754.28;5548410;32;33712;-86
2022/12/09 06:12:37;;;;;;;68.70;32.78;;;;;;;1.73;100.00;99758.56;5549643;32;34623;-86
2022/12/09 06:15:40;;;;;;;76.65;34.28;;;;;;;1.81;100.00;99754.00;5558994;32;34656;-86
2022/12/09 06:18:44;;;;;;;64.80;32.08;;;;;;;1.77;100.00;99752.38;5561656;32;35085;-86
2022/12/09 06:21:48;;;;;;;66.40;33.38;;;;;;;1.74;100.00;99755.91;5561230;32;34778;-86
2022/12/09 06:24:50;;;;;;;64.47;32.38;;;;;;;1.84;100.00;99758.31;5557417;32;33748;-86
2022/12/09 06:27:58;;;;;;;62.55;31.58;;;;;;;1.81;100.00;99759.22;5552664;32;34793;-86
2022/12/09 06:31:01;;;;;;;59.90;32.78;;;;;;;1.83;100.00;99756.59;5542354;32;35204;-86
2022/12/09 06:34:05;;;;;;;61.67;32.50;;;;;;;1.84;100.00;99750.47;5546564;32;32595;-86
2022/12/09 06:37:08;;;;;;;67.20;33.85;;;;;;;1.89;100.00;99745.97;5548090;32;35284;-86
2022/12/09 06:40:11;;;;;;;63.13;33.10;;;;;;;1.81;100.00;99743.53;5547806;32;33593;-86
2022/12/09 06:43:14;;;;;;;67.43;33.22;;;;;;;1.92;100.00;99747.66;5545654;32;36115;-86
2022/12/09 06:46:21;;;;;;;65.62;32.97;;;;;;;1.99;100.00;99749.22;5546392;32;35118;-86
2022/12/09 06:49:25;;;;;;;65.45;33.83;;;;;;;2.00;100.00;99745.72;5546946;32;32220;-86
2022/12/09 06:52:28;;;;;;;61.65;32.35;;;;;;;2.06;100.00;99749.97;5554771;32;34893;-86
2022/12/09 06:55:31;;;;;;;64.97;34.25;;;;;;;2.12;100.00;99749.81;5549189;32;34347;-85
2022/12/09 06:58:35;;;;;;;65.75;33.28;;;;;;;2.13;100.00;99752.38;5533055;32;33121;-86
2022/12/09 07:01:38;;;;;;;63.97;33.25;;;;;;;2.06;100.00;99742.09;5542039;32;34282;-87
2022/12/09 07:04:41;;;;;;;64.65;34.17;;;;;;;2.05;100.00;99750.84;5543956;32;33132;-90
2022/12/09 07:07:50;;;;;;;67.55;34.28;;;;;;;2.15;100.00;99739.25;5532131;32;34050;-89
2022/12/09 07:10:53;;;;;;;64.75;34.55;;;;;;;2.20;100.00;99741.78;5534083;32;33966;-86
2022/12/09 07:13:59;;;;;;;67.93;33.70;;;;;;;2.24;100.00;99746.88;5537204;32;33670;-86
2022/12/09 07:17:03;;;;;;;61.50;32.85;;;;;;;2.27;100.00;99736.31;5543986;32;33953;-86
2022/12/09 07:20:06;;;;;;;63.17;32.25;;;;;;;2.22;100.00;99734.72;5526974;32;33677;-87
2022/12/09 07:23:11;;;;;;;62.88;32.15;;;;;;;2.41;100.00;99735.97;5535197;32;34349;-88
2022/12/09 07:26:15;;;;;;;66.97;32.45;;;;;;;2.42;100.00;99736.84;5530001;32;36261;-88
2022/12/09 07:29:21;;;;;;;63.45;31.52;;;;;;;2.43;100.00;99730.69;5531879;32;35188;-85
2022/12/09 07:32:23;;;;;;;66.90;33.22;;;;;;;2.48;100.00;99720.97;5542275;32;32191;-85
2022/12/09 07:35:26;;;;;;;66.97;32.72;;;;;;;2.40;100.00;99736.88;5529933;32;34446;-85
2022/12/09 07:38:29;;;;;;;67.80;32.90;;;;;;;2.39;100.00;99732.53;5546984;32;34316;-86
2022/12/09 07:41:33;;;;;;;66.12;32.42;;;;;;;2.36;100.00;99734.37;5530424;32;34084;-86
2022/12/09 07:44:36;;;;;;;61.28;31.55;;;;;;;2.38;100.00;99730.81;5517964;32;33982;-85
2022/12/09 07:47:39;;;;;;;63.55;32.58;;;;;;;2.35;100.00;99727.41;5529652;32;33801;-85
2022/12/09 07:50:42;;;;;;;64.78;32.35;;;;;;;2.37;100.00;99733.47;5537612;32;34038;-85
2022/12/09 07:53:45;;;;;;;62.72;31.48;;;;;;;2.46;100.00;99737.62;5526788;32;34880;-86
2022/12/09 07:56:48;;;;;;;65.37;32.20;;;;;;;2.50;100.00;99727.00;5521723;32;32543;-85
2022/12/09 07:59:52;;;;;;;64.18;32.70;;;;;;;2.50;100.00;99726.13;5544080;32;34343;-85
2022/12/09 08:02:54;;;;;;;61.55;30.65;;;;;;;2.48;100.00;99723.59;5530850;32;34059;-84
2022/12/09 08:05:58;;;;;;;62.22;31.80;;;;;;;2.58;100.00;99723.31;5547574;32;33909;-85
2022/12/09 08:09:04;;;;;;;62.13;31.50;;;;;;;2.52;100.00;99717.34;5522554;32;35338;-85
2022/12/09 08:12:10;;;;;;;57.42;29.60;;;;;;;2.63;100.00;99724.06;5524478;32;32552;-85
2022/12/09 08:15:15;;;;;;;64.55;31.17;;;;;;;2.74;100.00;99714.16;5535348;32;34683;-85
2022/12/09 08:18:18;;;;;;;55.40;28.98;;;;;;;2.67;100.00;99710.81;5523174;32;35269;-88
2022/12/09 08:21:27;;;;;;;60.00;29.30;;;;;;;2.73;100.00;99703.69;5525886;32;33892;-87
2022/12/09 08:24:30;;;;;;;54.50;27.90;;;;;;;2.85;100.00;99703.34;5516690;32;33887;-87
2022/12/09 08:27:32;;;;;;;58.50;30.20;;;;;;;2.80;100.00;99700.00;5527661;32;32726;-87
2022/12/09 08:30:36;;;;;;;61.35;29.20;;;;;;;2.95;100.00;99702.19;5524208;32;33542;-87
2022/12/09 08:33:39;;;;;;;60.05;30.27;;;;;;;2.88;100.00;99700.66;5522357;32;32589;-85
2022/12/09 08:36:43;;;;;;;57.88;29.17;;;;;;;2.85;100.00;99695.50;5535326;32;34450;-85
2022/12/09 08:39:46;;;;;;;56.25;26.80;;;;;;;2.88;100.00;99697.16;5534590;32;33443;-85
2022/12/09 08:42:49;;;;;;;54.65;27.65;;;;;;;2.85;100.00;99689.41;5531945;32;32636;-84
2022/12/09 08:45:53;;;;;;;56.60;27.23;;;;;;;2.81;100.00;99692.09;5548297;32;32652;-84
2022/12/09 08:48:56;;;;;;;55.15;27.40;;;;;;;2.85;100.00;99690.25;5554195;32;34707;-84
2022/12/09 08:51:59;;;;;;;60.88;27.73;;;;;;;2.97;100.00;99686.44;5524005;32;33287;-84
2022/12/09 08:55:03;;;;;;;48.20;25.55;;;;;;;3.04;100.00;99684.47;5526256;32;33781;-84
2022/12/09 08:58:06;;;;;;;50.92;26.10;;;;;;;3.04;100.00;99671.38;5541882;32;33978;-84
2022/12/09 09:01:17;;;;;;;54.80;26.20;;;;;;;2.95;100.00;99667.25;5544429;32;33670;-85
2022/12/09 09:04:21;;;;;;;;;;;;;;;3.00;100.00;99670.63;5542042;32;33776;-90
2022/12/09 09:07:24;;;;;;;53.58;24.40;;;;;;;3.06;100.00;99674.78;5556963;31;35082;-89
2022/12/09 09:10:28;;;;;;;50.12;24.40;;;;;;;3.00;100.00;99664.50;5547327;32;34385;-85
2022/12/09 09:13:32;;;;;;;48.67;24.95;;;;;;;2.97;100.00;99658.47;5526031;32;34148;-85
2022/12/09 09:16:38;;;;;;;50.22;24.85;;;;;;;3.06;100.00;99662.56;5535660;32;33546;-85
2022/12/09 09:19:41;;;;;;;51.28;24.02;;;;;;;3.17;100.00;99646.50;5533692;32;34222;-84
2022/12/09 09:22:44;;;;;;;47.45;23.73;;;;;;;3.28;100.00;99645.31;5532170;32;34388;-84
2022/12/09 09:25:49;;;;;;;51.20;23.02;;;;;;;3.32;100.00;99642.56;5530795;32;33701;-84
2022/12/09 09:28:54;;;;;;;47.75;23.50;;;;;;;3.14;100.00;99636.13;5552205;32;33829;-84
2022/12/09 09:31:57;;;;;;;50.22;24.23;;;;;;;3.16;100.00;99639.56;5563925;32;33683;-84
2022/12/09 09:35:00;;;;;;;51.72;24.63;;;;;;;3.16;100.00;99636.94;5543730;32;32536;-84
2022/12/09 09:38:04;;;;;;;47.40;24.65;;;;;;;3.18;100.00;99642.13;5538155;32;32690;-84
2022/12/09 09:42:02;;;;;;;48.50;24.27;;;;;;;3.19;100.00;99635.97;5543891;32;34537;-84
2022/12/09 09:45:16;;;;;;;44.55;22.90;;;;;;;3.05;100.00;99628.53;5414602;32;33460;-85
2022/12/09 09:48:24;;;;;;;50.10;23.65;;;;;;;3.03;100.00;99618.13;5424303;32;34380;-84
2022/12/09 09:51:28;;;;;;;42.15;22.08;;;;;;;3.03;100.00;99618.13;5413572;32;33646;-83
2022/12/09 09:54:31;;;;;;;47.62;23.87;;;;;;;3.04;100.00;99614.59;5425561;32;33670;-85
2022/12/09 09:57:43;;;;;;;51.63;25.15;;;;;;;3.02;100.00;99613.78;5419430;32;34434;-86
2022/12/09 10:00:56;;;;;;;51.58;24.80;;;;;;;3.00;100.00;99612.97;5432393;32;34025;-86
2022/12/09 10:04:38;;;;;;;54.90;26.25;;;;;;;3.01;100.00;99606.81;5425600;32;33459;-90
2022/12/09 10:07:50;;;;;;;;;;;;;;;3.06;100.00;99598.81;5397629;33;33614;-87
2022/12/09 10:11:25;;;;;;;48.30;25.77;;;;;;;3.08;100.00;99589.16;5395076;32;34486;-86
2022/12/09 10:15:00;;;;;;;48.75;24.40;;;;;;;3.10;100.00;99584.72;5423980;32;34062;-86
2022/12/09 10:18:11;;;;;;;46.25;23.12;;;;;;;3.07;100.00;99571.72;5442149;32;32753;-86
2022/12/09 10:21:19;;;;;;;47.30;21.98;;;;;;;3.09;100.00;99562.91;5542455;32;32966;-87
2022/12/09 10:24:25;;;;;;;43.78;22.35;;;;;;;3.15;100.00;99558.34;5554414;32;33942;-87
2022/12/09 10:27:34;;;;;;;42.65;22.40;;;;;;;3.05;100.00;99540.31;5562276;32;33543;-86
2022/12/09 10:30:38;;;;;;;40.70;20.80;;;;;;;3.08;100.00;99547.22;5542953;32;32238;-86
2022/12/09 10:33:47;;;;;;;44.65;22.15;;;;;;;3.02;100.00;99522.06;5565400;32;34382;-86
2022/12/09 10:36:50;;;;;;;43.87;22.20;;;;;;;3.03;100.00;99523.78;5554225;32;33997;-86
2022/12/09 10:40:02;;;;;;;42.60;22.75;;;;;;;2.94;100.00;99509.22;5556166;32;34344;-91
2022/12/09 10:43:37;;;;;;;45.50;22.73;;;;;;;2.88;100.00;99498.94;5563491;32;34138;-87
2022/12/09 10:46:41;;;;;;;40.78;21.58;;;;;;;2.93;100.00;99490.94;5554415;32;34607;-87
2022/12/09 10:49:48;;;;;;;38.25;21.73;;;;;;;2.96;100.00;99470.72;5562452;32;33363;-87
2022/12/09 10:52:51;;;;;;;42.90;20.70;;;;;;;3.00;100.00;99474.09;5561729;32;33515;-87
2022/12/09 10:55:57;;;;;;;43.20;21.25;;;;;;;2.99;100.00;99467.16;5542138;32;33288;-87
2022/12/09 10:59:17;;;;;;;39.90;20.85;;;;;;;3.03;100.00;99460.03;5552336;32;34342;-86
2022/12/09 11:02:22;;;;;;;42.70;21.83;;;;;;;3.00;100.00;99453.13;5558978;32;33934;-85
2022/12/09 11:05:27;;;;;;;42.13;22.00;;;;;;;2.94;100.00;99448.97;5534530;32;34369;-86
2022/12/09 11:08:32;;;;;;;44.70;22.85;;;;;;;2.91;100.00;99435.94;5541581;32;33842;-86
2022/12/09 11:11:47;;;;;;;39.65;22.17;;;;;;;2.96;100.00;99455.00;5558217;32;33979;-86
2022/12/09 11:14:57;;;;;;;44.95;22.25;;;;;;;2.97;100.00;99438.38;5542052;32;32752;-86
2022/12/09 11:17:59;;;;;;;44.40;22.75;;;;;;;2.99;100.00;99422.59;5554962;32;34228;-86
2022/12/09 11:21:06;;;;;;;43.55;23.55;;;;;;;2.99;100.00;99417.38;5554816;32;33949;-87
2022/12/09 11:24:20;;;;;;;43.90;23.77;;;;;;;3.07;100.00;99410.09;5557892;32;34455;-86
2022/12/09 11:27:27;;;;;;;41.47;22.80;;;;;;;3.07;100.00;99417.94;5556884;32;34270;-86
2022/12/09 11:30:40;;;;;;;47.85;24.12;;;;;;;3.07;100.00;99415.31;5540954;32;32610;-86
2022/12/09 11:34:14;;;;;;;47.28;24.42;;;;;;;3.03;100.00;99415.50;5553550;32;34896;-86
2022/12/09 11:37:22;;;;;;;53.58;27.02;;;;;;;3.00;100.00;99418.19;5555474;32;34825;-86
2022/12/09 11:40:27;;;;;;;47.22;24.87;;;;;;;2.96;100.00;99420.06;5554903;32;33919;-86
2022/12/09 11:43:37;;;;;;;52.80;24.50;;;;;;;2.97;100.00;99422.66;5523983;32;32837;-86
2022/12/09 11:46:40;;;;;;;53.55;27.75;;;;;;;3.98;100.00;99397.22;5539949;32;34368;-86
2022/12/09 11:49:56;;;;;;;53.42;28.20;;;;;;;3.41;100.00;99389.69;5536704;32;32407;-86
2022/12/09 11:53:05;;;;;;;48.17;26.58;;;;;;;3.33;100.00;99394.38;5542617;32;33065;-86
2022/12/09 11:56:16;;;;;;;52.10;26.73;;;;;;;3.07;100.00;99390.91;5564882;32;34311;-87
2022/12/09 11:59:23;;;;;;;55.30;28.12;;;;;;;2.95;100.00;99376.44;5574215;32;35372;-86
2022/12/09 12:02:37;;;;;;;45.95;25.52;;;;;;;2.89;100.00;99376.66;5553611;32;33632;-86
2022/12/09 12:05:43;;;;;;;48.03;25.80;;;;;;;2.88;100.00;99380.19;5543297;32;33808;-86
2022/12/09 12:08:59;;;;;;;47.55;24.80;;;;;;;3.02;100.00;99385.81;5559289;32;33722;-86
2022/12/09 12:12:32;;;;;;;46.63;24.60;;;;;;;3.05;100.00;99376.97;5532058;32;33935;-86
2022/12/09 12:16:07;;;;;;;45.80;25.33;;;;;;;2.95;100.00;99369.44;5535400;32;32821;-89
2022/12/09 12:19:16;;;;;;;44.60;24.75;;;;;;;2.94;100.00;99366.88;5537290;32;33545;-86
2022/12/09 12:22:46;;;;;;;45.63;24.65;;;;;;;3.07;100.00;99368.16;5538616;32;34556;-86
2022/12/09 12:26:08;;;;;;;42.60;22.83;;;;;;;3.08;100.00;99369.03;5547390;32;34051;-86
2022/12/09 12:29:23;;;;;;;44.10;23.23;;;;;;;3.12;100.00;99359.28;5551945;32;33914;-85
2022/12/09 12:32:59;;;;;;;39.85;21.17;;;;;;;3.21;100.00;99367.69;5538260;32;32767;-85
2022/12/09 12:36:34;;;;;;;30.77;17.52;;;;;;;3.17;100.00;99346.88;5529062;32;32709;-85
2022/12/09 12:40:02;;;;;;;30.88;16.35;;;;;;;3.23;100.00;99354.53;5547552;32;35135;-90
2022/12/09 12:47:07;;;;;;;31.30;16.05;;;;;;;3.16;100.00;99334.69;5550055;32;34923;-86
2022/12/09 12:51:08;;;;;;;29.83;16.27;;;;;;;3.19;100.00;99338.06;5519793;32;32645;-86
2022/12/09 12:54:25;;;;;;;32.22;16.20;;;;;;;3.09;100.00;99321.81;5464498;32;34151;-86
2022/12/09 12:58:00;;;;;;;32.05;17.52;;;;;;;3.09;100.00;99328.81;5551887;32;33946;-90
2022/12/09 13:01:15;;;;;;;29.80;15.73;;;;;;;3.03;100.00;99326.41;5554258;32;34119;-86
2022/12/09 13:04:27;;;;;;;32.58;16.77;;;;;;;3.05;100.00;99321.94;5555820;32;34118;-85
2022/12/09 13:07:43;;;;;;;31.33;17.45;;;;;;;2.98;100.00;99321.34;5563354;32;34858;-86
2022/12/09 13:10:50;;;;;;;35.05;17.60;;;;;;;2.92;100.00;99317.16;5561906;32;33930;-85
2022/12/09 13:13:57;;;;;;;32.17;17.27;;;;;;;3.02;100.00;99324.69;5546782;32;32602;-86
2022/12/09 13:17:05;;;;;;;31.73;18.12;;;;;;;2.98;100.00;99316.09;5550828;32;34070;-86
2022/12/09 13:20:15;;;;;;;34.13;17.33;;;;;;;2.93;100.00;99310.16;5563566;32;34634;-86
2022/12/09 13:23:47;;;;;;;35.55;17.08;;;;;;;3.02;100.00;99298.50;5548819;32;34569;-86
2022/12/09 13:27:08;;;;;;;33.55;17.17;;;;;;;3.00;100.00;99300.28;5547237;32;34205;-86
2022/12/09 13:30:15;;;;;;;;;;;;;;;2.99;100.00;99307.31;5548461;32;33962;-86
2022/12/09 13:33:33;;;;;;;34.25;17.45;;;;;;;2.93;100.00;99300.50;5557379;32;34533;-91
2022/12/09 13:36:40;;;;;;;32.33;17.40;;;;;;;3.07;100.00;99300.03;5548400;32;32476;-87
2022/12/09 13:39:43;;;;;;;37.03;18.30;;;;;;;2.94;100.00;99299.63;5549915;32;34236;-87
2022/12/09 13:43:11;;;;;;;36.13;18.92;;;;;;;3.04;100.00;99301.91;5553923;32;33852;-87
2022/12/09 13:46:21;;;;;;;40.08;18.58;;;;;;;2.89;100.00;99298.94;5550012;32;33890;-86
2022/12/09 13:49:25;;;;;;;34.47;18.20;;;;;;;2.85;100.00;99292.09;5557442;32;32284;-86
2022/12/09 13:52:47;;;;;;;39.17;19.33;;;;;;;2.86;100.00;99280.69;5552175;32;34332;-87
2022/12/09 13:55:59;;;;;;;;;;;;;;;2.80;100.00;99279.16;5534257;32;33879;-86
2022/12/09 13:59:11;;;;;;;37.25;17.45;;;;;;;2.81;100.00;99275.63;5528876;32;35261;-86
2022/12/09 14:02:27;;;;;;;;;;;;;;;2.81;100.00;99277.37;5536989;32;33900;-87
2022/12/09 14:05:35;;;;;;;36.72;17.25;;;;;;;2.80;100.00;99278.28;5524659;32;33093;-86
2022/12/09 14:08:47;;;;;;;38.75;17.60;;;;;;;2.81;100.00;99274.75;5533396;32;34620;-86
2022/12/09 14:11:59;;;;;;;38.88;18.08;;;;;;;2.82;100.00;99281.72;5536204;32;34337;-86
2022/12/09 14:15:24;;;;;;;34.58;16.92;;;;;;;2.85;100.00;99267.66;5536714;32;34178;-85
2022/12/09 14:18:31;;;;;;;36.10;16.92;;;;;;;2.78;100.00;99275.75;5537980;32;34496;-86
2022/12/09 14:21:34;;;;;;;34.85;16.62;;;;;;;2.79;100.00;99266.97;5538994;32;33219;-86
2022/12/09 14:24:37;;;;;;;32.90;15.85;;;;;;;2.75;100.00;99261.87;5542862;32;34124;-86
2022/12/09 14:28:08;;;;;;;29.70;15.43;;;;;;;2.81;100.00;99251.19;5536490;32;33963;-86
2022/12/09 14:31:11;;;;;;;34.70;17.08;;;;;;;2.81;100.00;99245.94;5535130;32;33996;-86
2022/12/09 14:34:36;;;;;;;35.33;16.25;;;;;;;2.78;100.00;99246.94;5538629;32;35102;-87
2022/12/09 14:37:56;;;;;;;35.50;17.62;;;;;;;2.76;100.00;99251.34;5543573;32;33970;-86
2022/12/09 14:41:15;;;;;;;35.92;18.20;;;;;;;2.78;100.00;99244.31;5547331;32;33623;-86
2022/12/09 14:44:31;;;;;;;35.38;17.08;;;;;;;2.77;100.00;99239.13;5542382;32;32819;-85
2022/12/09 14:47:39;;;;;;;33.65;17.23;;;;;;;2.77;100.00;99226.88;5540157;32;33836;-86
2022/12/09 14:50:42;;;;;;;34.22;17.00;;;;;;;2.75;100.00;99222.59;5553174;32;34841;-86
2022/12/09 14:53:55;;;;;;;37.75;16.87;;;;;;;2.75;100.00;99214.72;5552697;32;34531;-85
2022/12/09 14:57:01;;;;;;;35.97;17.52;;;;;;;2.77;100.00;99216.37;5552519;32;34584;-89
2022/12/09 15:00:05;;;;;;;36.60;17.23;;;;;;;2.78;100.00;99207.66;5550901;32;34334;-91
2022/12/09 15:03:18;;;;;;;37.08;18.85;;;;;;;2.87;100.00;99197.72;5554575;32;34345;-86
2022/12/09 15:06:41;;;;;;;;;;;;;;;2.89;100.00;99195.91;5556162;32;34078;-85
2022/12/09 15:09:59;;;;;;;38.50;17.23;;;;;;;2.91;100.00;99176.59;5563027;32;34938;-86
2022/12/09 15:13:05;;;;;;;33.20;16.77;;;;;;;2.81;100.00;99172.59;5562912;32;34681;-86
2022/12/09 15:16:16;;;;;;;36.20;17.17;;;;;;;2.88;100.00;99181.97;5551915;32;33920;-86
2022/12/09 15:19:23;;;;;;;34.60;17.08;;;;;;;2.94;100.00;99184.34;5528360;32;33464;-86
2022/12/09 15:22:50;;;;;;;34.35;17.30;;;;;;;2.94;100.00;99179.13;5543385;32;34146;-86
2022/12/09 15:26:00;;;;;;;33.45;16.65;;;;;;;2.89;100.00;99182.81;5549400;32;34688;-86
2022/12/09 15:29:05;;;;;;;37.58;18.08;;;;;;;2.88;100.00;99174.12;5555256;32;34010;-86
2022/12/09 15:32:20;;;;;;;38.67;18.15;;;;;;;2.85;100.00;99165.53;5556078;32;35232;-86
2022/12/09 15:35:26;;;;;;;40.78;19.95;;;;;;;2.88;100.00;99163.63;5556479;32;35115;-86
2022/12/09 15:38:34;;;;;;;42.35;19.15;;;;;;;2.89;100.00;99156.63;5556416;32;33827;-86
2022/12/09 15:45:18;;;;;;;39.05;17.55;;;;;;;2.93;100.00;99150.34;5555898;32;35354;-87
2022/12/09 15:48:26;;;;;;;36.83;18.33;;;;;;;2.94;100.00;99150.31;5540612;32;32634;-87
2022/12/09 15:51:32;;;;;;;38.97;18.42;;;;;;;3.00;100.00;99143.97;5554587;32;34223;-87
2022/12/09 15:54:39;;;;;;;41.60;18.83;;;;;;;2.97;100.00;99134.44;5559026;32;34244;-87
2022/12/09 15:57:42;;;;;;;37.08;17.67;;;;;;;2.95;100.00;99119.69;5563490;32;35140;-87
2022/12/09 16:00:48;;;;;;;39.67;19.35;;;;;;;3.00;100.00;99116.91;5550752;32;34217;-87
2022/12/09 16:03:53;;;;;;;38.22;17.87;;;;;;;3.03;100.00;99111.56;5550046;32;33826;-87
2022/12/09 16:07:04;;;;;;;39.60;18.73;;;;;;;3.01;100.00;99111.59;5551049;32;34850;-87
2022/12/09 16:10:15;;;;;;;36.30;17.52;;;;;;;3.05;100.00;99107.09;5537303;32;32683;-86
2022/12/09 16:13:20;;;;;;;34.60;17.83;;;;;;;3.06;100.00;99114.03;5552999;32;34737;-87
2022/12/09 16:16:28;;;;;;;33.92;17.40;;;;;;;3.17;100.00;99103.16;5556500;32;34249;-87
2022/12/09 16:19:37;;;;;;;33.03;16.67;;;;;;;3.12;100.00;99094.63;5555625;32;34005;-87
2022/12/09 16:22:40;;;;;;;34.30;17.60;;;;;;;3.14;100.00;99091.03;5559873;32;34368;-87
2022/12/09 16:25:46;;;;;;;35.08;18.60;;;;;;;3.26;100.00;99094.06;5542063;32;33059;-87
2022/12/09 16:29:05;;;;;;;34.53;17.73;;;;;;;3.21;100.00;99082.00;5560343;32;34062;-87
2022/12/09 16:32:19;;;;;;;38.47;19.52;;;;;;;3.20;100.00;99084.66;5556257;32;35305;-87
2022/12/09 16:35:39;;;;;;;37.08;19.85;;;;;;;3.15;100.00;99074.38;5554149;32;34625;-86
2022/12/09 16:39:08;;;;;;;36.90;18.75;;;;;;;3.09;100.00;99072.88;5554134;32;34831;-89
2022/12/09 16:42:37;;;;;;;42.65;20.30;;;;;;;3.07;100.00;99068.59;5554733;32;34878;-85
